Zouar Airport

Jump to: basic info | weather | comments

Related pages: nearby airports | nearby navaids | notams | map

Basic information (top)

Codes: FTTR
Location: lon 20.450001, lat 16.583000, elev 2,655 ft / 809 m msl
Status: small_airport

Weather (top)

Current conditions for Faya Largeau Airport 209nm (387km) SE (rec'd 2014/04/19 13:00Z):

FTTY 191300Z 18021KT 9999 TS SCT040 FEW050CB 44/06 Q////

Airport forecast for Kufra Airport 436nm (807km) ENE (rec'd 2014/04/19 06:00Z):

TAF HLKF 190500Z 1906/2006 03012KT 8000 FEW035 SCT070 
      BECMG 1906/1908 36012G22KT PROB40 
      TEMPO 1907/1918 6000 SHRA BKN020 
      BECMG 1921/1923 35015KT

Latest comments (top)

No comments yet for Zouar Airport

More... (top)

See also NOTAMs and nearby airports and navaids, or visit the Zouar Airport page at the main OurAirports website..